KLM90Z EDDB-EHAM
Flight info
| Callsign | KLM90Z |
|---|---|
| Flight time | 1h 8m |
| Altitude | 36000 |
| Route | SUKIP4Z SUKIP Y206 BUREL P203 HLZ L980 ROBEG DCT NORKU |
| Aircraft | B738/M-SDE2E3FGHIRWXY/LB1 |
Departure
| Time | 2026-05-07 09:25 |
|---|---|
| Airport | Berlin Brandenburg Airport (EDDB) |
Arrival
| Time | 2026-05-07 10:33 |
|---|---|
| Airport | Amsterdam Airport Schiphol (EHAM) |
| Time | Latitude | Longitude | Altitude | Speed | Heading |
|---|---|---|---|---|---|
| 2026-05-07 08:25 | 52.36081 | 13.51118 | 154 ft | 0 kts | 339° |
| 2026-05-07 08:37 | 52.36080 | 13.51118 | 154 ft | 0 kts | 339° |
| 2026-05-07 09:05 | 52.36072 | 13.51123 | 154 ft | 4 kts | 339° |
| 2026-05-07 09:05 | 52.36047 | 13.51139 | 154 ft | 4 kts | 335° |
| 2026-05-07 09:06 | 52.36024 | 13.51161 | 154 ft | 4 kts | 316° |
| 2026-05-07 09:06 | 52.36009 | 13.51195 | 154 ft | 4 kts | 274° |
| 2026-05-07 09:06 | 52.36010 | 13.51214 | 154 ft | 1 kts | 249° |
| 2026-05-07 09:09 | 52.36008 | 13.51207 | 154 ft | 4 kts | 249° |
| 2026-05-07 09:10 | 52.35980 | 13.51088 | 153 ft | 16 kts | 249° |
| 2026-05-07 09:10 | 52.35933 | 13.50889 | 153 ft | 19 kts | 248° |
| 2026-05-07 09:10 | 52.35883 | 13.50684 | 157 ft | 17 kts | 244° |
| 2026-05-07 09:10 | 52.35814 | 13.50636 | 153 ft | 9 kts | 175° |
| 2026-05-07 09:11 | 52.35764 | 13.50586 | 153 ft | 9 kts | 243° |
| 2026-05-07 09:11 | 52.35742 | 13.50493 | 153 ft | 9 kts | 250° |
| 2026-05-07 09:11 | 52.35718 | 13.50387 | 153 ft | 11 kts | 249° |
| 2026-05-07 09:11 | 52.35687 | 13.50257 | 153 ft | 14 kts | 249° |
| 2026-05-07 09:12 | 52.35648 | 13.50095 | 153 ft | 17 kts | 249° |
| 2026-05-07 09:12 | 52.35602 | 13.49902 | 153 ft | 19 kts | 249° |
| 2026-05-07 09:12 | 52.35550 | 13.49683 | 153 ft | 22 kts | 249° |
| 2026-05-07 09:12 | 52.35493 | 13.49443 | 153 ft | 23 kts | 247° |
| 2026-05-07 09:13 | 52.35431 | 13.49188 | 153 ft | 25 kts | 249° |
| 2026-05-07 09:13 | 52.35371 | 13.48930 | 153 ft | 24 kts | 249° |
| 2026-05-07 09:13 | 52.35315 | 13.48687 | 153 ft | 23 kts | 249° |
| 2026-05-07 09:13 | 52.35257 | 13.48452 | 153 ft | 22 kts | 249° |
| 2026-05-07 09:14 | 52.35202 | 13.48221 | 155 ft | 21 kts | 249° |
| 2026-05-07 09:14 | 52.35150 | 13.47997 | 153 ft | 21 kts | 249° |
| 2026-05-07 09:14 | 52.35098 | 13.47780 | 153 ft | 20 kts | 248° |
| 2026-05-07 09:14 | 52.35048 | 13.47571 | 155 ft | 19 kts | 249° |
| 2026-05-07 09:15 | 52.34999 | 13.47367 | 153 ft | 19 kts | 249° |
| 2026-05-07 09:15 | 52.34953 | 13.47173 | 153 ft | 18 kts | 249° |
| 2026-05-07 09:15 | 52.34908 | 13.46982 | 153 ft | 18 kts | 249° |
| 2026-05-07 09:15 | 52.34865 | 13.46798 | 153 ft | 17 kts | 249° |
| 2026-05-07 09:16 | 52.34823 | 13.46714 | 153 ft | 4 kts | 201° |
| 2026-05-07 09:16 | 52.34793 | 13.46719 | 153 ft | 5 kts | 160° |
| 2026-05-07 09:16 | 52.34789 | 13.46721 | 153 ft | 0 kts | 159° |
| 2026-05-07 09:18 | 52.34787 | 13.46722 | 153 ft | 0 kts | 159° |
| 2026-05-07 09:19 | 52.34785 | 13.46723 | 153 ft | 1 kts | 159° |
| 2026-05-07 09:19 | 52.34758 | 13.46741 | 153 ft | 8 kts | 159° |
| 2026-05-07 09:20 | 52.34711 | 13.46771 | 153 ft | 0 kts | 158° |
| 2026-05-07 09:23 | 52.34705 | 13.46775 | 153 ft | 3 kts | 158° |
| 2026-05-07 09:23 | 52.34663 | 13.46803 | 153 ft | 9 kts | 157° |
| 2026-05-07 09:23 | 52.34601 | 13.46847 | 153 ft | 10 kts | 157° |
| 2026-05-07 09:24 | 52.34568 | 13.46942 | 153 ft | 11 kts | 82° |
| 2026-05-07 09:24 | 52.34599 | 13.47086 | 153 ft | 27 kts | 69° |
| 2026-05-07 09:24 | 52.34762 | 13.47760 | 153 ft | 98 kts | 69° |
| 2026-05-07 09:24 | 52.35085 | 13.49109 | 156 ft | 154 kts | 68° |
| 2026-05-07 09:25 | 52.35491 | 13.50884 | 560 ft | 171 kts | 69° |
| 2026-05-07 09:25 | 52.35807 | 13.52771 | 1373 ft | 175 kts | 82° |
| 2026-05-07 09:25 | 52.35882 | 13.54718 | 1999 ft | 166 kts | 84° |
| 2026-05-07 09:25 | 52.35930 | 13.56566 | 2550 ft | 161 kts | 84° |
| 2026-05-07 09:26 | 52.35989 | 13.58424 | 2894 ft | 167 kts | 84° |
| 2026-05-07 09:26 | 52.36076 | 13.60337 | 3370 ft | 171 kts | 84° |
| 2026-05-07 09:26 | 52.36177 | 13.62413 | 3634 ft | 199 kts | 84° |
| 2026-05-07 09:26 | 52.36321 | 13.64781 | 3928 ft | 215 kts | 81° |
| 2026-05-07 09:27 | 52.36584 | 13.67258 | 4421 ft | 222 kts | 80° |
| 2026-05-07 09:27 | 52.36824 | 13.69798 | 4958 ft | 229 kts | 82° |
| 2026-05-07 09:27 | 52.35698 | 13.74423 | 6322 ft | 241 kts | 147° |
| 2026-05-07 09:28 | 52.34122 | 13.75415 | 6991 ft | 246 kts | 161° |
| 2026-05-07 09:28 | 52.32420 | 13.76024 | 7660 ft | 253 kts | 178° |
| 2026-05-07 09:28 | 52.30654 | 13.75431 | 8098 ft | 272 kts | 199° |
| 2026-05-07 09:28 | 52.28802 | 13.74361 | 8516 ft | 289 kts | 199° |
| 2026-05-07 09:29 | 52.26886 | 13.73248 | 9182 ft | 294 kts | 202° |
| 2026-05-07 09:29 | 52.25207 | 13.71397 | 9966 ft | 294 kts | 230° |
| 2026-05-07 09:29 | 52.24130 | 13.68531 | 10458 ft | 304 kts | 248° |
| 2026-05-07 09:29 | 52.23342 | 13.65241 | 10622 ft | 326 kts | 251° |
| 2026-05-07 09:30 | 52.22567 | 13.61660 | 10933 ft | 341 kts | 251° |
| 2026-05-07 09:30 | 52.21762 | 13.57966 | 11515 ft | 348 kts | 250° |
| 2026-05-07 09:30 | 52.20935 | 13.54298 | 12270 ft | 348 kts | 249° |
| 2026-05-07 09:30 | 52.20078 | 13.50574 | 12993 ft | 352 kts | 248° |
| 2026-05-07 09:31 | 52.19222 | 13.46824 | 13728 ft | 356 kts | 251° |
| 2026-05-07 09:31 | 52.18772 | 13.42836 | 14406 ft | 359 kts | 264° |
| 2026-05-07 09:31 | 52.18584 | 13.38757 | 15129 ft | 362 kts | 266° |
| 2026-05-07 09:31 | 52.18416 | 13.34638 | 15791 ft | 366 kts | 265° |
| 2026-05-07 09:32 | 52.18237 | 13.30455 | 16389 ft | 372 kts | 265° |
| 2026-05-07 09:32 | 52.18042 | 13.26290 | 17128 ft | 374 kts | 264° |
| 2026-05-07 09:32 | 52.17830 | 13.22037 | 17786 ft | 377 kts | 264° |
| 2026-05-07 09:32 | 52.17605 | 13.17735 | 18411 ft | 381 kts | 264° |
| 2026-05-07 09:33 | 52.17372 | 13.13414 | 18984 ft | 384 kts | 263° |
| 2026-05-07 09:33 | 52.17137 | 13.09064 | 19583 ft | 386 kts | 263° |
| 2026-05-07 09:33 | 52.16899 | 13.04682 | 20157 ft | 389 kts | 263° |
| 2026-05-07 09:33 | 52.16657 | 13.00273 | 20723 ft | 391 kts | 264° |
| 2026-05-07 09:34 | 52.16414 | 12.95905 | 21272 ft | 394 kts | 262° |
| 2026-05-07 09:34 | 52.15973 | 12.91485 | 21808 ft | 396 kts | 256° |
| 2026-05-07 09:34 | 52.15309 | 12.87119 | 22361 ft | 397 kts | 254° |
| 2026-05-07 09:34 | 52.14620 | 12.82733 | 22914 ft | 399 kts | 255° |
| 2026-05-07 09:35 | 52.13970 | 12.78368 | 23376 ft | 403 kts | 255° |
| 2026-05-07 09:35 | 52.13355 | 12.73898 | 23801 ft | 406 kts | 260° |
| 2026-05-07 09:35 | 52.13405 | 12.69271 | 24167 ft | 413 kts | 281° |
| 2026-05-07 09:35 | 52.14412 | 12.64930 | 24596 ft | 417 kts | 298° |
| 2026-05-07 09:36 | 52.16212 | 12.61171 | 24939 ft | 423 kts | 316° |
| 2026-05-07 09:36 | 52.18423 | 12.57974 | 25364 ft | 425 kts | 319° |
| 2026-05-07 09:36 | 52.20670 | 12.54800 | 25741 ft | 428 kts | 318° |
| 2026-05-07 09:36 | 52.22883 | 12.51593 | 26090 ft | 431 kts | 317° |
| 2026-05-07 09:37 | 52.25010 | 12.48123 | 26418 ft | 434 kts | 305° |
| 2026-05-07 09:37 | 52.26439 | 12.43778 | 26779 ft | 433 kts | 287° |
| 2026-05-07 09:37 | 52.27187 | 12.39030 | 27255 ft | 431 kts | 281° |
| 2026-05-07 09:37 | 52.27822 | 12.34287 | 27583 ft | 434 kts | 280° |
| 2026-05-07 09:38 | 52.28459 | 12.29434 | 27862 ft | 438 kts | 280° |
| 2026-05-07 09:38 | 52.29111 | 12.24546 | 28167 ft | 441 kts | 281° |
| 2026-05-07 09:38 | 52.29771 | 12.19694 | 28496 ft | 443 kts | 281° |
| 2026-05-07 09:38 | 52.30454 | 12.14757 | 28821 ft | 446 kts | 281° |
| 2026-05-07 09:39 | 52.31145 | 12.09792 | 29162 ft | 449 kts | 281° |
| 2026-05-07 09:39 | 52.31840 | 12.04800 | 29485 ft | 451 kts | 281° |
| 2026-05-07 09:39 | 52.32537 | 11.99775 | 29797 ft | 454 kts | 281° |
| 2026-05-07 09:39 | 52.33232 | 11.94750 | 30149 ft | 455 kts | 280° |
| 2026-05-07 09:40 | 52.33926 | 11.89708 | 30708 ft | 449 kts | 280° |
| 2026-05-07 09:40 | 52.34539 | 11.84758 | 31291 ft | 441 kts | 275° |
| 2026-05-07 09:40 | 52.34771 | 11.79779 | 31739 ft | 437 kts | 270° |
| 2026-05-07 09:40 | 52.34856 | 11.74866 | 32090 ft | 436 kts | 269° |
| 2026-05-07 09:41 | 52.34912 | 11.69877 | 32436 ft | 436 kts | 269° |
| 2026-05-07 09:41 | 52.34970 | 11.64918 | 32832 ft | 434 kts | 269° |
| 2026-05-07 09:41 | 52.35038 | 11.60007 | 33273 ft | 432 kts | 270° |
| 2026-05-07 09:41 | 52.35115 | 11.55163 | 33689 ft | 429 kts | 270° |
| 2026-05-07 09:42 | 52.35200 | 11.50281 | 34058 ft | 428 kts | 270° |
| 2026-05-07 09:42 | 52.35287 | 11.45405 | 34336 ft | 428 kts | 270° |
| 2026-05-07 09:42 | 52.35374 | 11.40518 | 34516 ft | 430 kts | 270° |
| 2026-05-07 09:42 | 52.35460 | 11.35652 | 34728 ft | 431 kts | 270° |
| 2026-05-07 09:43 | 52.35545 | 11.30747 | 35002 ft | 430 kts | 270° |
| 2026-05-07 09:43 | 52.35627 | 11.25830 | 35259 ft | 430 kts | 270° |
| 2026-05-07 09:43 | 52.35707 | 11.20925 | 35471 ft | 431 kts | 270° |
| 2026-05-07 09:43 | 52.35785 | 11.16018 | 35686 ft | 431 kts | 270° |
| 2026-05-07 09:44 | 52.35860 | 11.11164 | 35917 ft | 431 kts | 270° |
| 2026-05-07 09:44 | 52.36006 | 11.01286 | 36008 ft | 436 kts | 270° |
| 2026-05-07 09:45 | 52.36145 | 10.91420 | 36013 ft | 434 kts | 270° |
| 2026-05-07 09:45 | 52.36270 | 10.81617 | 36018 ft | 428 kts | 269° |
| 2026-05-07 09:46 | 52.35511 | 10.71988 | 36027 ft | 425 kts | 257° |
| 2026-05-07 09:46 | 52.34319 | 10.62563 | 36023 ft | 425 kts | 257° |
| 2026-05-07 09:47 | 52.33133 | 10.53085 | 36022 ft | 425 kts | 258° |
| 2026-05-07 09:47 | 52.31977 | 10.43660 | 36032 ft | 426 kts | 258° |
| 2026-05-07 09:48 | 52.30809 | 10.34120 | 36028 ft | 427 kts | 258° |
| 2026-05-07 09:48 | 52.29632 | 10.24559 | 36017 ft | 429 kts | 258° |
| 2026-05-07 09:49 | 52.28452 | 10.15057 | 36025 ft | 430 kts | 258° |
| 2026-05-07 09:49 | 52.27254 | 10.05477 | 36024 ft | 431 kts | 258° |
| 2026-05-07 09:50 | 52.26044 | 9.95853 | 36020 ft | 432 kts | 258° |
| 2026-05-07 09:50 | 52.24952 | 9.86196 | 36018 ft | 433 kts | 265° |
| 2026-05-07 09:51 | 52.24700 | 9.76429 | 36012 ft | 433 kts | 267° |
| 2026-05-07 09:51 | 52.24510 | 9.66603 | 36024 ft | 432 kts | 267° |
| 2026-05-07 09:52 | 52.24266 | 9.56861 | 36017 ft | 431 kts | 267° |
| 2026-05-07 09:52 | 52.23991 | 9.47081 | 36023 ft | 431 kts | 266° |
| 2026-05-07 09:53 | 52.23709 | 9.37356 | 36019 ft | 430 kts | 266° |
| 2026-05-07 09:53 | 52.23420 | 9.27622 | 36013 ft | 429 kts | 267° |
| 2026-05-07 09:54 | 52.23329 | 9.19456 | 36021 ft | 429 kts | 269° |
| 2026-05-07 09:54 | 52.23367 | 9.09798 | 36023 ft | 428 kts | 269° |
| 2026-05-07 09:55 | 52.23402 | 9.00061 | 36024 ft | 428 kts | 269° |
| 2026-05-07 09:55 | 52.23407 | 8.90387 | 36026 ft | 428 kts | 269° |
| 2026-05-07 09:56 | 52.23393 | 8.80661 | 36020 ft | 429 kts | 269° |
| 2026-05-07 09:56 | 52.23368 | 8.70910 | 36036 ft | 429 kts | 269° |
| 2026-05-07 09:57 | 52.23336 | 8.61121 | 36016 ft | 430 kts | 269° |
| 2026-05-07 09:57 | 52.23295 | 8.51416 | 36025 ft | 430 kts | 269° |
| 2026-05-07 09:58 | 52.23247 | 8.41646 | 36018 ft | 427 kts | 269° |
| 2026-05-07 09:58 | 52.23193 | 8.32155 | 36010 ft | 411 kts | 269° |
| 2026-05-07 09:58 | 52.23164 | 8.27572 | 36016 ft | 396 kts | 269° |
| 2026-05-07 09:59 | 52.23134 | 8.23154 | 35989 ft | 383 kts | 269° |
| 2026-05-07 09:59 | 52.23103 | 8.18835 | 35639 ft | 380 kts | 269° |
| 2026-05-07 09:59 | 52.23071 | 8.14534 | 34957 ft | 387 kts | 269° |
| 2026-05-07 09:59 | 52.23036 | 8.10051 | 34118 ft | 399 kts | 269° |
| 2026-05-07 10:00 | 52.22998 | 8.05488 | 33471 ft | 402 kts | 269° |
| 2026-05-07 10:00 | 52.22959 | 8.00955 | 33097 ft | 398 kts | 269° |
| 2026-05-07 10:00 | 52.22918 | 7.96445 | 32775 ft | 393 kts | 269° |
| 2026-05-07 10:00 | 52.22877 | 7.92064 | 32373 ft | 391 kts | 269° |
| 2026-05-07 10:01 | 52.22834 | 7.87640 | 31995 ft | 388 kts | 269° |
| 2026-05-07 10:01 | 52.22790 | 7.83250 | 31622 ft | 385 kts | 269° |
| 2026-05-07 10:01 | 52.22744 | 7.78910 | 31266 ft | 382 kts | 269° |
| 2026-05-07 10:01 | 52.22697 | 7.74563 | 30875 ft | 380 kts | 269° |
| 2026-05-07 10:02 | 52.22649 | 7.70301 | 30496 ft | 379 kts | 269° |
| 2026-05-07 10:02 | 52.22600 | 7.66018 | 30162 ft | 375 kts | 269° |
| 2026-05-07 10:02 | 52.22549 | 7.61760 | 29691 ft | 374 kts | 269° |
| 2026-05-07 10:02 | 52.22497 | 7.57509 | 29176 ft | 374 kts | 269° |
| 2026-05-07 10:03 | 52.22443 | 7.53285 | 28782 ft | 370 kts | 269° |
| 2026-05-07 10:03 | 52.22389 | 7.49100 | 28399 ft | 367 kts | 269° |
| 2026-05-07 10:03 | 52.22334 | 7.45003 | 28048 ft | 363 kts | 269° |
| 2026-05-07 10:03 | 52.22278 | 7.40889 | 27683 ft | 360 kts | 269° |
| 2026-05-07 10:04 | 52.22221 | 7.36830 | 27353 ft | 355 kts | 269° |
| 2026-05-07 10:04 | 52.22163 | 7.32825 | 26981 ft | 353 kts | 269° |
| 2026-05-07 10:04 | 52.22105 | 7.28866 | 26646 ft | 350 kts | 269° |
| 2026-05-07 10:04 | 52.22046 | 7.24921 | 26290 ft | 347 kts | 269° |
| 2026-05-07 10:05 | 52.21985 | 7.20978 | 25942 ft | 344 kts | 269° |
| 2026-05-07 10:05 | 52.21924 | 7.17082 | 25607 ft | 342 kts | 269° |
| 2026-05-07 10:05 | 52.21863 | 7.13225 | 25279 ft | 339 kts | 269° |
| 2026-05-07 10:05 | 52.21801 | 7.09386 | 24942 ft | 337 kts | 268° |
| 2026-05-07 10:06 | 52.21738 | 7.05612 | 24616 ft | 336 kts | 268° |
| 2026-05-07 10:06 | 52.21672 | 7.01755 | 24279 ft | 336 kts | 269° |
| 2026-05-07 10:06 | 52.21933 | 6.98043 | 23916 ft | 337 kts | 289° |
| 2026-05-07 10:06 | 52.22981 | 6.94647 | 23624 ft | 335 kts | 304° |
| 2026-05-07 10:07 | 52.24421 | 6.91652 | 23252 ft | 334 kts | 309° |
| 2026-05-07 10:07 | 52.25920 | 6.88758 | 22871 ft | 332 kts | 309° |
| 2026-05-07 10:07 | 52.27219 | 6.85634 | 22164 ft | 338 kts | 293° |
| 2026-05-07 10:07 | 52.28037 | 6.82067 | 21769 ft | 336 kts | 287° |
| 2026-05-07 10:08 | 52.28740 | 6.78417 | 21398 ft | 334 kts | 286° |
| 2026-05-07 10:08 | 52.29412 | 6.74793 | 21051 ft | 332 kts | 286° |
| 2026-05-07 10:08 | 52.30075 | 6.71207 | 20707 ft | 329 kts | 286° |
| 2026-05-07 10:08 | 52.30729 | 6.67678 | 20374 ft | 326 kts | 286° |
| 2026-05-07 10:09 | 52.31390 | 6.64136 | 20050 ft | 324 kts | 286° |
| 2026-05-07 10:09 | 52.32045 | 6.60638 | 19737 ft | 321 kts | 286° |
| 2026-05-07 10:09 | 52.32712 | 6.57086 | 19000 ft | 332 kts | 286° |
| 2026-05-07 10:09 | 52.33409 | 6.53373 | 17913 ft | 352 kts | 286° |
| 2026-05-07 10:10 | 52.34139 | 6.49480 | 17185 ft | 358 kts | 286° |
| 2026-05-07 10:10 | 52.34860 | 6.45641 | 16727 ft | 355 kts | 287° |
| 2026-05-07 10:10 | 52.35584 | 6.41777 | 16236 ft | 354 kts | 287° |
| 2026-05-07 10:10 | 52.36306 | 6.37921 | 15843 ft | 350 kts | 287° |
| 2026-05-07 10:11 | 52.37017 | 6.34117 | 15452 ft | 346 kts | 287° |
| 2026-05-07 10:11 | 52.37705 | 6.30423 | 14996 ft | 344 kts | 287° |
| 2026-05-07 10:11 | 52.38407 | 6.26648 | 14499 ft | 344 kts | 287° |
| 2026-05-07 10:11 | 52.39094 | 6.22948 | 14205 ft | 338 kts | 287° |
| 2026-05-07 10:12 | 52.39779 | 6.19248 | 13740 ft | 337 kts | 287° |
| 2026-05-07 10:12 | 52.40455 | 6.15591 | 13274 ft | 335 kts | 286° |
| 2026-05-07 10:12 | 52.41122 | 6.11980 | 12752 ft | 335 kts | 287° |
| 2026-05-07 10:12 | 52.41794 | 6.08325 | 12310 ft | 333 kts | 287° |
| 2026-05-07 10:13 | 52.42461 | 6.04698 | 11911 ft | 329 kts | 287° |
| 2026-05-07 10:13 | 52.43121 | 6.01100 | 11422 ft | 330 kts | 287° |
| 2026-05-07 10:13 | 52.43784 | 5.97480 | 10959 ft | 329 kts | 287° |
| 2026-05-07 10:13 | 52.44430 | 5.93940 | 10559 ft | 328 kts | 286° |
| 2026-05-07 10:14 | 52.45090 | 5.90324 | 10209 ft | 325 kts | 286° |
| 2026-05-07 10:14 | 52.45734 | 5.86783 | 9791 ft | 323 kts | 286° |
| 2026-05-07 10:14 | 52.46375 | 5.83254 | 9321 ft | 322 kts | 286° |
| 2026-05-07 10:14 | 52.47004 | 5.79786 | 8937 ft | 319 kts | 286° |
| 2026-05-07 10:15 | 52.47624 | 5.76361 | 8864 ft | 306 kts | 286° |
| 2026-05-07 10:15 | 52.48219 | 5.73065 | 8772 ft | 295 kts | 286° |
| 2026-05-07 10:15 | 52.48792 | 5.69892 | 8684 ft | 284 kts | 286° |
| 2026-05-07 10:15 | 52.49346 | 5.66817 | 8504 ft | 278 kts | 286° |
| 2026-05-07 10:16 | 52.49885 | 5.63815 | 8191 ft | 277 kts | 286° |
| 2026-05-07 10:16 | 52.50429 | 5.60779 | 7888 ft | 276 kts | 286° |
| 2026-05-07 10:16 | 52.50829 | 5.57708 | 7580 ft | 275 kts | 269° |
| 2026-05-07 10:16 | 52.50351 | 5.54695 | 7268 ft | 274 kts | 243° |
| 2026-05-07 10:17 | 52.49410 | 5.51983 | 7133 ft | 274 kts | 239° |
| 2026-05-07 10:17 | 52.48412 | 5.49317 | 7096 ft | 275 kts | 238° |
| 2026-05-07 10:17 | 52.47404 | 5.46648 | 7080 ft | 274 kts | 239° |
| 2026-05-07 10:17 | 52.46413 | 5.44013 | 7072 ft | 273 kts | 239° |
| 2026-05-07 10:18 | 52.45419 | 5.41354 | 7073 ft | 273 kts | 239° |
| 2026-05-07 10:18 | 52.44426 | 5.38688 | 7072 ft | 274 kts | 239° |
| 2026-05-07 10:18 | 52.43433 | 5.36017 | 7078 ft | 274 kts | 239° |
| 2026-05-07 10:18 | 52.42444 | 5.33350 | 7083 ft | 274 kts | 239° |
| 2026-05-07 10:19 | 52.41451 | 5.30672 | 7072 ft | 275 kts | 239° |
| 2026-05-07 10:19 | 52.40410 | 5.28090 | 7068 ft | 274 kts | 236° |
| 2026-05-07 10:19 | 52.39361 | 5.25496 | 6998 ft | 272 kts | 237° |
| 2026-05-07 10:19 | 52.38334 | 5.22910 | 6760 ft | 270 kts | 237° |
| 2026-05-07 10:20 | 52.37309 | 5.20318 | 6404 ft | 272 kts | 238° |
| 2026-05-07 10:20 | 52.36280 | 5.17718 | 6078 ft | 272 kts | 238° |
| 2026-05-07 10:20 | 52.35240 | 5.15113 | 5748 ft | 272 kts | 238° |
| 2026-05-07 10:20 | 52.34215 | 5.12557 | 5487 ft | 270 kts | 237° |
| 2026-05-07 10:21 | 52.33180 | 5.09987 | 5166 ft | 270 kts | 237° |
| 2026-05-07 10:21 | 52.32142 | 5.07416 | 4874 ft | 269 kts | 237° |
| 2026-05-07 10:21 | 52.31116 | 5.04888 | 4525 ft | 271 kts | 237° |
| 2026-05-07 10:21 | 52.30075 | 5.02345 | 4216 ft | 271 kts | 237° |
| 2026-05-07 10:22 | 52.29012 | 4.99802 | 3867 ft | 272 kts | 237° |
| 2026-05-07 10:22 | 52.27969 | 4.97243 | 3664 ft | 268 kts | 238° |
| 2026-05-07 10:22 | 52.26938 | 4.94705 | 3387 ft | 266 kts | 237° |
| 2026-05-07 10:22 | 52.25923 | 4.92191 | 3087 ft | 265 kts | 237° |
| 2026-05-07 10:23 | 52.24908 | 4.89666 | 2776 ft | 265 kts | 237° |
| 2026-05-07 10:23 | 52.23917 | 4.87188 | 2500 ft | 263 kts | 237° |
| 2026-05-07 10:23 | 52.22951 | 4.84664 | 2212 ft | 262 kts | 241° |
| 2026-05-07 10:23 | 52.21985 | 4.82143 | 2033 ft | 259 kts | 237° |
| 2026-05-07 10:24 | 52.20995 | 4.79687 | 2003 ft | 258 kts | 237° |
| 2026-05-07 10:24 | 52.20016 | 4.77234 | 2019 ft | 257 kts | 238° |
| 2026-05-07 10:24 | 52.19029 | 4.74775 | 1983 ft | 259 kts | 238° |
| 2026-05-07 10:24 | 52.18048 | 4.72318 | 1950 ft | 260 kts | 238° |
| 2026-05-07 10:25 | 52.17054 | 4.69878 | 1999 ft | 257 kts | 237° |
| 2026-05-07 10:25 | 52.16071 | 4.67456 | 1994 ft | 254 kts | 237° |
| 2026-05-07 10:25 | 52.15101 | 4.65053 | 1997 ft | 257 kts | 237° |
| 2026-05-07 10:25 | 52.14143 | 4.62553 | 2035 ft | 261 kts | 243° |
| 2026-05-07 10:26 | 52.13656 | 4.59699 | 1974 ft | 261 kts | 269° |
| 2026-05-07 10:26 | 52.13891 | 4.56816 | 2027 ft | 257 kts | 290° |
| 2026-05-07 10:26 | 52.14756 | 4.54401 | 2013 ft | 244 kts | 314° |
| 2026-05-07 10:26 | 52.15967 | 4.52613 | 2002 ft | 225 kts | 321° |
| 2026-05-07 10:27 | 52.17143 | 4.51052 | 1973 ft | 209 kts | 322° |
| 2026-05-07 10:27 | 52.18217 | 4.49642 | 1994 ft | 189 kts | 322° |
| 2026-05-07 10:27 | 52.19195 | 4.48345 | 1977 ft | 174 kts | 322° |
| 2026-05-07 10:27 | 52.20112 | 4.47129 | 2013 ft | 171 kts | 323° |
| 2026-05-07 10:28 | 52.21093 | 4.46044 | 1970 ft | 173 kts | 346° |
| 2026-05-07 10:28 | 52.22288 | 4.46328 | 1633 ft | 180 kts | 34° |
| 2026-05-07 10:28 | 52.22922 | 4.47867 | 1690 ft | 162 kts | 81° |
| 2026-05-07 10:28 | 52.22612 | 4.49691 | 1464 ft | 172 kts | 118° |
| 2026-05-07 10:29 | 52.22052 | 4.51340 | 1721 ft | 169 kts | 112° |
| 2026-05-07 10:29 | 52.21721 | 4.53201 | 2036 ft | 173 kts | 92° |
| 2026-05-07 10:29 | 52.21872 | 4.55134 | 1984 ft | 177 kts | 68° |
| 2026-05-07 10:30 | 52.23059 | 4.58520 | 1676 ft | 165 kts | 56° |
| 2026-05-07 10:30 | 52.23681 | 4.60074 | 1694 ft | 164 kts | 56° |
| 2026-05-07 10:30 | 52.24299 | 4.61688 | 1643 ft | 172 kts | 56° |
| 2026-05-07 10:30 | 52.24919 | 4.63346 | 1345 ft | 169 kts | 56° |
| 2026-05-07 10:31 | 52.25517 | 4.64887 | 1129 ft | 153 kts | 57° |
| 2026-05-07 10:31 | 52.26059 | 4.66317 | 1101 ft | 142 kts | 57° |
| 2026-05-07 10:31 | 52.26606 | 4.67723 | 970 ft | 150 kts | 56° |
| 2026-05-07 10:31 | 52.27136 | 4.69128 | 698 ft | 147 kts | 56° |
| 2026-05-07 10:32 | 52.27694 | 4.70552 | 475 ft | 146 kts | 57° |
| 2026-05-07 10:32 | 52.28212 | 4.71934 | 289 ft | 145 kts | 55° |
| 2026-05-07 10:32 | 52.28748 | 4.73309 | 90 ft | 143 kts | 56° |
| 2026-05-07 10:32 | 52.29258 | 4.74633 | 0 ft | 125 kts | 56° |
| 2026-05-07 10:33 | 52.29655 | 4.75656 | -2 ft | 84 kts | 57° |
| 2026-05-07 10:33 | 52.29910 | 4.76312 | -5 ft | 57 kts | 57° |
| 2026-05-07 10:33 | 52.30080 | 4.76586 | -3 ft | 26 kts | 29° |
| 2026-05-07 10:33 | 52.30167 | 4.76658 | -2 ft | 1 kts | 27° |
| 2026-05-07 10:34 | 52.30173 | 4.76663 | -2 ft | 1 kts | 27° |
| 2026-05-07 10:34 | 52.30179 | 4.76668 | -2 ft | 1 kts | 27° |
| 2026-05-07 10:34 | 52.30187 | 4.76675 | -2 ft | 2 kts | 27° |
| 2026-05-07 10:34 | 52.30194 | 4.76680 | -2 ft | 0 kts | 27° |
| 2026-05-07 10:35 | 52.30206 | 4.76691 | -2 ft | 4 kts | 27° |
| 2026-05-07 10:35 | 52.30218 | 4.76701 | -2 ft | 0 kts | 26° |
| 2026-05-07 10:35 | 52.30233 | 4.76712 | -2 ft | 5 kts | 26° |
| 2026-05-07 10:35 | 52.30285 | 4.76747 | -2 ft | 11 kts | 11° |
| 2026-05-07 10:36 | 52.30308 | 4.76747 | -2 ft | 1 kts | 350° |
| 2026-05-07 10:36 | 52.30317 | 4.76739 | -2 ft | 3 kts | 330° |
| 2026-05-07 10:36 | 52.30346 | 4.76717 | -2 ft | 6 kts | 348° |
| 2026-05-07 10:36 | 52.30391 | 4.76770 | -2 ft | 11 kts | 57° |
| 2026-05-07 10:37 | 52.30429 | 4.76822 | -2 ft | 6 kts | 342° |
| 2026-05-07 10:37 | 52.30461 | 4.76785 | -2 ft | 3 kts | 323° |
| 2026-05-07 10:37 | 52.30467 | 4.76777 | -2 ft | 0 kts | 322° |
| 2026-05-07 10:39 | 52.30467 | 4.76778 | -2 ft | 0 kts | 322° |